Time;durP1;ratioP1;P1;durP2;ratioP2;P2;SDS_P1;SDS_P2;PMS_P1;PMS_P2;Temp;Humidity;BMP_temperature;BMP_pressure;BME280_temperature;BME280_humidity;BME280_pressure;Samples;Min_cycle;Max_cycle;Signal;HPM_P1;HPM_P2
2021/12/09 00:01:26;;;;;;;16.73;7.82;;;;;;;1.42;100.00;96618.06;5025796;28;20053;-63
2021/12/09 00:03:56;;;;;;;17.48;7.00;;;;;;;1.33;100.00;96632.84;5025719;28;20053;-63
2021/12/09 00:06:27;;;;;;;17.38;8.20;;;;;;;1.48;100.00;96627.72;5024775;28;20797;-63
2021/12/09 00:08:56;;;;;;;19.33;7.70;;;;;;;1.48;100.00;96630.44;5025667;28;20452;-66
2021/12/09 00:11:23;;;;;;;17.83;8.43;;;;;;;1.52;100.00;96650.50;5024247;28;20378;-66
2021/12/09 00:13:51;;;;;;;17.73;8.35;;;;;;;1.52;100.00;96634.13;5025346;28;20098;-61
2021/12/09 00:16:18;;;;;;;17.23;8.77;;;;;;;1.53;100.00;96635.72;5025739;28;20053;-63
2021/12/09 00:18:45;;;;;;;23.10;9.27;;;;;;;1.55;100.00;96636.22;5025515;28;20053;-65
2021/12/09 00:21:12;;;;;;;18.58;8.73;;;;;;;1.60;100.00;96632.50;5025197;28;20060;-62
2021/12/09 00:23:39;;;;;;;26.92;9.27;;;;;;;1.51;100.00;96635.25;5025420;28;20057;-63
2021/12/09 00:26:06;;;;;;;24.73;8.15;;;;;;;1.50;100.00;96630.91;5025441;28;20055;-61
2021/12/09 00:28:33;;;;;;;18.42;8.77;;;;;;;1.52;100.00;96646.97;5025520;28;20045;-61
2021/12/09 00:31:01;;;;;;;19.00;9.05;;;;;;;0.58;100.00;96499.75;5025762;28;20168;-64
2021/12/09 00:33:28;;;;;;;22.05;8.30;;;;;;;-0.30;100.00;96370.38;5025794;28;21214;-62
2021/12/09 00:35:57;;;;;;;20.00;8.15;;;;;;;1.46;100.00;96640.88;5023819;28;20049;-62
2021/12/09 00:38:36;;;;;;;17.33;8.15;;;;;;;1.52;100.00;96650.50;5024993;28;20053;-63
2021/12/09 00:41:14;;;;;;;19.88;8.40;;;;;;;1.32;100.00;96632.06;5025044;28;20053;-62
2021/12/09 00:43:42;;;;;;;17.25;7.40;;;;;;;1.21;100.00;96644.41;5025084;28;20057;-63
2021/12/09 00:46:10;;;;;;;17.23;7.55;;;;;;;1.08;100.00;96620.81;5024994;28;20068;-63
2021/12/09 00:48:37;;;;;;;20.73;9.20;;;;;;;1.22;100.00;96646.00;5025238;28;20049;-63
2021/12/09 00:51:06;;;;;;;20.25;7.93;;;;;;;1.42;100.00;96683.56;5024897;28;20069;-63
2021/12/09 00:53:33;;;;;;;15.45;6.53;;;;;;;0.98;100.00;96640.19;5024713;28;20053;-64
2021/12/09 00:56:01;;;;;;;15.27;5.97;;;;;;;1.27;100.00;96684.03;5003655;28;20054;-64
2021/12/09 00:58:28;;;;;;;12.52;6.53;;;;;;;1.16;100.00;96684.66;5005309;28;20068;-62
2021/12/09 01:00:54;;;;;;;18.75;8.77;;;;;;;0.88;100.00;96645.16;5003668;28;20050;-63
2021/12/09 01:03:21;;;;;;;23.05;9.07;;;;;;;1.21;100.00;96682.59;5005412;28;20054;-63
2021/12/09 01:05:49;;;;;;;21.98;9.65;;;;;;;1.36;100.00;96679.38;5005390;28;20057;-63
2021/12/09 01:08:37;;;;;;;19.75;8.20;;;;;;;0.82;100.00;96619.97;5005113;28;20068;-64
2021/12/09 01:11:05;;;;;;;21.02;9.07;;;;;;;1.23;100.00;96685.78;5003383;28;20158;-63
2021/12/09 01:13:32;;;;;;;13.15;6.78;;;;;;;0.57;100.00;96579.06;5003266;28;20140;-64
2021/12/09 01:15:59;;;;;;;20.05;8.98;;;;;;;1.25;100.00;96688.19;5005000;28;20058;-63
2021/12/09 01:18:31;;;;;;;18.05;8.63;;;;;;;1.21;100.00;96682.59;5005100;28;20054;-63
2021/12/09 01:20:58;;;;;;;20.98;9.10;;;;;;;0.57;100.00;96574.41;5004802;28;20092;-63
2021/12/09 01:23:25;;;;;;;21.58;9.75;;;;;;;1.21;100.00;96671.69;5004956;28;20472;-63
2021/12/09 01:25:58;;;;;;;21.48;10.05;;;;;;;0.67;100.00;96590.47;5004778;28;20061;-63
2021/12/09 01:28:28;;;;;;;16.30;7.80;;;;;;;1.13;100.00;96658.84;5004930;28;20485;-63
2021/12/09 01:31:01;;;;;;;17.27;7.57;;;;;;;1.17;100.00;96670.69;5003175;28;20058;-65
2021/12/09 01:33:30;;;;;;;21.20;7.88;;;;;;;1.12;100.00;96668.13;5004910;28;20507;-63
2021/12/09 01:35:57;;;;;;;13.32;6.30;;;;;;;1.08;100.00;96667.16;5004946;28;20060;-64
2021/12/09 01:38:28;;;;;;;22.13;8.90;;;;;;;1.07;100.00;96671.03;5004714;28;20087;-63
2021/12/09 01:40:55;;;;;;;17.08;7.15;;;;;;;0.95;100.00;96670.84;5004708;28;20057;-63
2021/12/09 01:43:23;;;;;;;17.40;8.40;;;;;;;0.89;100.00;96663.13;5004653;28;20058;-62
2021/12/09 01:46:11;;;;;;;20.10;8.38;;;;;;;0.92;100.00;96657.03;5004650;28;20056;-62
2021/12/09 01:48:39;;;;;;;24.70;8.90;;;;;;;0.89;100.00;96658.47;5004664;28;20505;-62
2021/12/09 01:51:07;;;;;;;17.67;7.60;;;;;;;0.34;100.00;96581.09;5004516;28;20058;-63
2021/12/09 01:53:35;;;;;;;19.25;8.90;;;;;;;0.33;100.00;96582.22;5004565;28;20064;-62
2021/12/09 01:56:05;;;;;;;17.65;7.60;;;;;;;0.29;100.00;96573.06;5023718;28;20046;-62
2021/12/09 01:58:32;;;;;;;21.25;8.15;;;;;;;0.78;100.00;96642.72;5024488;28;20054;-63
2021/12/09 02:01:00;;;;;;;17.92;7.45;;;;;;;0.68;100.00;96652.00;5024030;28;20088;-65
2021/12/09 02:03:27;;;;;;;20.58;8.77;;;;;;;0.76;100.00;96651.22;5024478;28;20057;-62
2021/12/09 02:05:54;;;;;;;14.55;6.32;;;;;;;0.84;100.00;96655.09;5027307;28;20138;-65
2021/12/09 02:08:21;;;;;;;16.60;7.57;;;;;;;0.67;100.00;96623.16;5026698;28;20045;-64
2021/12/09 02:10:49;;;;;;;13.00;5.88;;;;;;;0.71;100.00;96651.38;5027716;28;20064;-63
2021/12/09 02:13:17;;;;;;;17.55;7.50;;;;;;;0.74;100.00;96644.50;5027964;28;20107;-62
2021/12/09 02:15:45;;;;;;;16.13;7.55;;;;;;;0.78;100.00;96645.47;5027578;28;20501;-63
2021/12/09 02:18:13;;;;;;;17.13;7.22;;;;;;;0.60;100.00;96644.59;5026369;28;20054;-62
2021/12/09 02:20:42;;;;;;;15.13;5.70;;;;;;;0.63;100.00;96654.91;5027357;28;20053;-63
2021/12/09 02:23:11;;;;;;;17.85;7.05;;;;;;;0.35;100.00;96620.81;5027531;28;20140;-62
2021/12/09 02:25:44;;;;;;;13.98;5.93;;;;;;;0.60;100.00;96660.97;5027379;28;20059;-62
2021/12/09 02:28:13;;;;;;;12.55;5.05;;;;;;;0.52;100.00;96669.91;5027774;28;20058;-63
2021/12/09 02:30:40;;;;;;;13.15;5.50;;;;;;;0.40;100.00;96667.00;5027812;28;20054;-64
2021/12/09 02:33:07;;;;;;;15.63;6.07;;;;;;;0.47;100.00;96656.44;5026087;28;20139;-63
2021/12/09 02:35:34;;;;;;;15.43;6.30;;;;;;;0.51;100.00;96645.69;5027555;28;20522;-62
2021/12/09 02:38:00;;;;;;;20.98;7.60;;;;;;;0.07;100.00;96581.31;5027402;28;20046;-62
2021/12/09 02:40:27;;;;;;;22.30;9.63;;;;;;;0.56;100.00;96654.53;5027737;28;20504;-64
2021/12/09 02:42:54;;;;;;;18.98;7.88;;;;;;;0.26;100.00;96630.88;5026801;28;20054;-64
2021/12/09 02:45:21;;;;;;;21.30;8.02;;;;;;;0.12;100.00;96594.78;5027510;28;20049;-63
2021/12/09 02:47:47;;;;;;;16.13;6.63;;;;;;;0.50;100.00;96644.91;5026883;28;20049;-63
2021/12/09 02:50:14;;;;;;;19.92;7.82;;;;;;;0.51;100.00;96641.06;5025918;28;20042;-63
2021/12/09 02:52:41;;;;;;;19.35;7.50;;;;;;;0.17;100.00;96564.72;5025249;28;20054;-63
2021/12/09 02:55:09;;;;;;;13.77;7.05;;;;;;;0.57;100.00;96637.06;5027453;28;20067;-63
2021/12/09 02:57:35;;;;;;;15.70;6.53;;;;;;;0.59;100.00;96632.13;5027088;28;20057;-64
2021/12/09 03:00:06;;;;;;;17.30;6.57;;;;;;;-0.06;100.00;96535.94;5027298;28;20055;-63
2021/12/09 03:02:32;;;;;;;14.73;6.30;;;;;;;0.41;100.00;96635.88;5025336;28;20053;-62
2021/12/09 03:05:02;;;;;;;16.20;6.20;;;;;;;0.44;100.00;96635.28;5027005;28;20057;-64
2021/12/09 03:07:34;;;;;;;19.92;7.50;;;;;;;0.36;100.00;96632.53;5026956;28;20049;-63
2021/12/09 03:10:16;;;;;;;20.98;7.55;;;;;;;0.43;100.00;96633.66;5026991;28;20060;-63
2021/12/09 03:12:44;;;;;;;41.43;17.57;;;;;;;0.40;100.00;96652.56;5025604;28;20059;-63
2021/12/09 03:15:11;;;;;;;34.95;14.20;;;;;;;-2.22;100.00;96232.00;5027383;28;20064;-63
2021/12/09 03:17:39;;;;;;;25.60;11.65;;;;;;;-0.37;100.00;96546.06;5025383;28;20062;-64
2021/12/09 03:20:09;;;;;;;29.83;10.98;;;;;;;0.36;100.00;96659.75;5027122;28;20061;-63
2021/12/09 03:22:36;;;;;;;24.77;10.52;;;;;;;0.27;100.00;96650.75;5026955;28;20075;-65
2021/12/09 03:25:08;;;;;;;29.30;12.15;;;;;;;0.38;100.00;96669.22;5025490;28;20049;-63
2021/12/09 03:27:35;;;;;;;31.00;11.52;;;;;;;0.45;100.00;96679.66;5025209;28;20057;-65
2021/12/09 03:30:05;;;;;;;27.35;11.73;;;;;;;0.50;100.00;96669.44;5026914;28;20060;-63
2021/12/09 03:32:31;;;;;;;23.90;10.98;;;;;;;0.46;100.00;96671.16;5024894;28;20156;-65
2021/12/09 03:34:58;;;;;;;20.58;8.60;;;;;;;0.53;100.00;96693.31;5026708;28;20058;-63
2021/12/09 03:37:27;;;;;;;22.95;9.35;;;;;;;0.60;100.00;96677.31;5024528;28;20057;-63
2021/12/09 03:39:55;;;;;;;24.42;10.20;;;;;;;0.64;100.00;96678.28;5026896;28;20053;-63
2021/12/09 03:42:25;;;;;;;24.88;9.02;;;;;;;0.67;100.00;96669.50;5026046;28;20061;-63
2021/12/09 03:44:55;;;;;;;20.70;8.85;;;;;;;0.63;100.00;96644.00;5026867;28;20068;-65
2021/12/09 03:47:25;;;;;;;27.10;9.85;;;;;;;0.82;100.00;96674.47;5025832;28;20532;-63
2021/12/09 03:49:53;;;;;;;35.80;13.50;;;;;;;0.14;100.00;96576.25;5026740;28;20083;-63
2021/12/09 03:52:20;;;;;;;40.60;15.55;;;;;;;-0.47;100.00;96483.78;5025702;28;20045;-65
2021/12/09 03:54:47;;;;;;;27.05;11.65;;;;;;;0.73;100.00;96679.13;5016999;28;20910;-63
2021/12/09 03:57:14;;;;;;;33.85;13.52;;;;;;;0.68;100.00;96679.25;5006113;28;20061;-64
2021/12/09 03:59:42;;;;;;;25.50;12.52;;;;;;;0.51;100.00;96659.31;5006500;28;20496;-63
2021/12/09 04:02:11;;;;;;;29.40;12.70;;;;;;;0.48;100.00;96668.94;5004674;28;20053;-65
2021/12/09 04:04:38;;;;;;;28.77;13.30;;;;;;;0.44;100.00;96662.53;5006159;28;20556;-64
2021/12/09 04:07:05;;;;;;;31.83;13.73;;;;;;;-0.01;100.00;96590.25;5006301;28;20335;-65
2021/12/09 04:09:32;;;;;;;34.95;17.15;;;;;;;-0.14;100.00;96563.94;5005838;28;20057;-64
2021/12/09 04:11:59;;;;;;;31.40;15.90;;;;;;;0.48;100.00;96668.13;5005486;28;20536;-65
2021/12/09 04:14:26;;;;;;;23.95;11.20;;;;;;;0.29;100.00;96665.66;5006294;28;20062;-64
2021/12/09 04:16:53;;;;;;;44.35;21.77;;;;;;;0.30;100.00;96667.25;5006069;28;20065;-62
2021/12/09 04:19:19;;;;;;;31.75;15.18;;;;;;;0.01;100.00;96631.59;5004767;28;20507;-62
2021/12/09 04:21:46;;;;;;;26.02;10.98;;;;;;;0.34;100.00;96676.41;5004659;28;20056;-63
2021/12/09 04:24:15;;;;;;;22.70;9.63;;;;;;;0.36;100.00;96671.47;5005705;28;20057;-64
2021/12/09 04:26:47;;;;;;;17.50;8.73;;;;;;;0.21;100.00;96663.69;5005486;28;20063;-62
2021/12/09 04:29:14;;;;;;;20.08;8.43;;;;;;;0.42;100.00;96686.56;5005252;28;20050;-65
2021/12/09 04:31:42;;;;;;;20.95;10.40;;;;;;;-0.10;100.00;96652.03;5005675;28;20046;-66
2021/12/09 04:34:10;;;;;;;23.25;10.18;;;;;;;0.34;100.00;96706.38;5005723;28;20080;-64
2021/12/09 04:36:38;;;;;;;17.17;8.93;;;;;;;-0.69;100.00;96533.59;5005597;28;20054;-64
2021/12/09 04:39:05;;;;;;;24.48;9.55;;;;;;;0.39;100.00;96692.63;5003877;28;20053;-64
2021/12/09 04:41:32;;;;;;;22.92;8.75;;;;;;;0.43;100.00;96699.03;5004207;28;20703;-63
2021/12/09 04:43:59;;;;;;;18.40;7.82;;;;;;;0.27;100.00;96689.66;5004020;28;20060;-63
2021/12/09 04:46:26;;;;;;;33.78;13.05;;;;;;;-0.26;100.00;96571.88;5005773;28;20053;-65
2021/12/09 04:48:53;;;;;;;31.45;12.65;;;;;;;0.40;100.00;96688.78;5003930;28;20124;-66
2021/12/09 04:51:20;;;;;;;23.23;11.00;;;;;;;-0.34;100.00;96592.50;5005898;28;20064;-63
2021/12/09 04:53:46;;;;;;;17.92;7.85;;;;;;;0.29;100.00;96671.09;5005446;28;20068;-65
2021/12/09 04:56:14;;;;;;;20.42;8.35;;;;;;;0.37;100.00;96689.41;5025078;28;20099;-66
2021/12/09 04:58:40;;;;;;;17.85;7.88;;;;;;;0.38;100.00;96688.28;5024781;28;20049;-65
2021/12/09 05:01:08;;;;;;;15.77;6.15;;;;;;;0.32;100.00;96686.81;5023158;28;20084;-66
2021/12/09 05:03:35;;;;;;;14.02;6.40;;;;;;;0.25;100.00;96697.38;5022978;28;20051;-64
2021/12/09 05:06:02;;;;;;;15.45;6.78;;;;;;;0.18;100.00;96680.66;5024875;28;20057;-63
2021/12/09 05:08:31;;;;;;;16.10;8.38;;;;;;;0.20;100.00;96683.88;5023518;28;20872;-64
2021/12/09 05:13:30;;;;;;;22.33;8.25;;;;;;;0.40;100.00;96685.25;5024395;28;20057;-64
2021/12/09 05:15:58;;;;;;;19.27;8.38;;;;;;;-0.40;100.00;96565.75;5023259;28;20061;-65
2021/12/09 05:18:27;;;;;;;15.38;7.25;;;;;;;0.11;100.00;96663.19;5024520;28;20969;-64
2021/12/09 05:20:54;;;;;;;13.85;6.47;;;;;;;-0.04;100.00;96667.09;5023080;28;20053;-64
2021/12/09 05:23:23;;;;;;;22.17;9.18;;;;;;;-0.34;100.00;96614.28;5022967;28;20075;-65
2021/12/09 05:25:50;;;;;;;26.52;12.13;;;;;;;-0.98;100.00;96527.00;5024216;28;20095;-65
2021/12/09 05:28:19;;;;;;;27.73;12.85;;;;;;;0.27;100.00;96676.06;5024373;28;20057;-64
2021/12/09 05:33:34;;;;;;;34.60;13.23;;;;;;;0.09;100.00;96632.72;5024276;28;20088;-66
2021/12/09 05:36:02;;;;;;;76.05;27.65;;;;;;;-0.66;100.00;96568.31;5023879;28;20052;-65
2021/12/09 05:38:28;;;;;;;43.83;15.70;;;;;;;0.39;100.00;96689.09;5024092;28;20571;-63
2021/12/09 05:40:55;;;;;;;79.22;27.58;;;;;;;-0.30;100.00;96584.53;5027603;28;20095;-64
2021/12/09 05:43:22;;;;;;;68.75;28.33;;;;;;;0.33;100.00;96702.06;5028457;28;20046;-65
2021/12/09 05:45:49;;;;;;;69.72;25.27;;;;;;;0.29;100.00;96698.34;5026869;28;20053;-64
2021/12/09 05:48:17;;;;;;;63.10;26.30;;;;;;;0.30;100.00;96704.59;5028470;28;20053;-64
2021/12/09 05:50:44;;;;;;;71.70;29.25;;;;;;;0.28;100.00;96710.38;5028390;28;20088;-66
2021/12/09 05:53:12;;;;;;;101.15;39.38;;;;;;;-0.13;100.00;96647.19;5023008;28;20796;-62
2021/12/09 05:55:43;;;;;;;97.40;36.00;;;;;;;-0.02;100.00;96662.16;5006094;28;20057;-64
2021/12/09 05:58:15;;;;;;;86.35;34.95;;;;;;;0.52;100.00;96726.34;5006327;28;20568;-63
2021/12/09 06:00:47;;;;;;;522.38;172.82;;;;;;;0.47;100.00;96723.75;5006378;28;20123;-64
2021/12/09 06:03:14;;;;;;;300.30;91.30;;;;;;;0.52;100.00;96745.41;5004954;28;20050;-63
2021/12/09 06:05:41;;;;;;;195.77;61.80;;;;;;;0.72;100.00;96739.41;5005991;28;20081;-64
2021/12/09 06:08:08;;;;;;;98.75;39.28;;;;;;;0.49;100.00;96702.44;5007194;28;20441;-64
2021/12/09 06:10:36;;;;;;;64.13;29.20;;;;;;;0.32;100.00;96675.91;5006726;28;20504;-65
2021/12/09 06:13:04;;;;;;;56.83;23.23;;;;;;;0.80;99.28;96736.72;5006139;28;20054;-63
2021/12/09 06:15:32;;;;;;;54.55;21.05;;;;;;;0.87;100.00;96736.25;4994126;28;20049;-64
2021/12/09 06:17:59;;;;;;;47.17;21.45;;;;;;;0.95;99.63;96744.44;5001234;28;20042;-65
2021/12/09 06:20:26;;;;;;;44.22;20.45;;;;;;;0.51;97.94;96679.22;5007124;28;20052;-63
2021/12/09 06:22:53;;;;;;;46.30;20.58;;;;;;;0.56;97.79;96683.72;5007114;28;20152;-63
2021/12/09 06:25:20;;;;;;;51.42;21.92;;;;;;;0.87;99.31;96747.16;5006921;28;20070;-63
2021/12/09 06:27:49;;;;;;;47.97;21.52;;;;;;;0.75;100.00;96700.59;5008173;28;20594;-64
2021/12/09 06:30:18;;;;;;;51.53;21.10;;;;;;;1.31;99.60;96758.66;5007931;28;20049;-64
2021/12/09 06:32:45;;;;;;;53.42;23.42;;;;;;;1.19;97.79;96753.00;5007747;28;20137;-63
2021/12/09 06:35:13;;;;;;;57.05;23.58;;;;;;;1.44;98.62;96760.44;5006096;28;20058;-63
2021/12/09 06:37:44;;;;;;;48.83;19.58;;;;;;;1.07;97.59;96698.31;5007995;28;20054;-64
2021/12/09 06:40:13;;;;;;;72.93;31.42;;;;;;;1.68;96.29;96772.81;5006156;28;20104;-64
2021/12/09 06:42:42;;;;;;;52.20;23.80;;;;;;;1.86;97.10;96763.53;5007811;28;20054;-63
2021/12/09 06:45:11;;;;;;;36.25;17.00;;;;;;;2.01;94.58;96771.25;5008224;28;20083;-63
2021/12/09 06:47:39;;;;;;;34.15;15.38;;;;;;;2.14;94.43;96764.78;5006498;28;20062;-63
2021/12/09 06:50:08;;;;;;;34.53;17.02;;;;;;;2.05;93.97;96758.53;5005755;28;20347;-63
2021/12/09 06:52:35;;;;;;;32.00;12.60;;;;;;;1.83;95.45;96750.53;5008011;28;20064;-63
2021/12/09 06:55:05;;;;;;;13.88;6.70;;;;;;;1.31;94.66;96660.44;5016589;28;20516;-63
2021/12/09 06:57:32;;;;;;;17.10;6.95;;;;;;;-2.33;94.63;96192.69;5027129;28;20522;-63
2021/12/09 07:00:02;;;;;;;23.02;9.45;;;;;;;0.53;98.95;96693.31;5017619;28;20038;-66
2021/12/09 07:02:29;;;;;;;22.05;9.90;;;;;;;0.88;100.00;96748.75;5014424;28;20133;-62
2021/12/09 07:04:56;;;;;;;29.40;11.35;;;;;;;0.21;100.00;96576.56;5021322;28;20309;-66
2021/12/09 07:07:23;;;;;;;31.63;14.02;;;;;;;1.62;99.56;96768.66;5009529;28;20068;-60
2021/12/09 07:09:50;;;;;;;34.53;13.52;;;;;;;1.94;98.59;96755.34;5016445;28;20053;-61
2021/12/09 07:12:17;;;;;;;32.40;14.38;;;;;;;1.76;95.77;96720.16;5018101;28;20238;-61
2021/12/09 07:14:44;;;;;;;24.10;11.25;;;;;;;2.23;94.75;96746.47;5016680;28;20327;-63
2021/12/09 07:17:11;;;;;;;23.40;12.18;;;;;;;0.23;92.93;96386.44;5035908;28;20055;-62
2021/12/09 07:19:39;;;;;;;19.15;9.90;;;;;;;2.35;91.98;96711.09;5044130;28;20152;-64
2021/12/09 07:22:06;;;;;;;19.20;9.40;;;;;;;1.72;96.13;96757.44;5018547;28;20056;-65
2021/12/09 07:24:33;;;;;;;19.52;8.95;;;;;;;1.09;95.06;96619.69;5010129;28;20595;-64
2021/12/09 07:27:00;;;;;;;19.55;8.93;;;;;;;2.08;93.83;96739.59;5010847;28;20534;-60
2021/12/09 07:29:27;;;;;;;22.10;9.70;;;;;;;2.35;93.27;96760.25;5022544;28;20046;-61
2021/12/09 07:31:55;;;;;;;19.40;8.35;;;;;;;2.60;92.03;96767.59;5012191;28;20053;-63
2021/12/09 07:34:22;;;;;;;17.10;7.35;;;;;;;2.66;92.36;96769.84;5014057;28;20491;-63
2021/12/09 07:36:49;;;;;;;20.88;8.70;;;;;;;2.30;90.96;96711.25;5019671;28;20058;-63
2021/12/09 07:39:15;;;;;;;16.27;8.10;;;;;;;2.21;89.85;96645.72;5011579;28;20060;-70
2021/12/09 07:41:42;;;;;;;19.40;9.50;;;;;;;2.89;89.80;96762.22;5017655;28;20424;-64
2021/12/09 07:44:10;;;;;;;22.05;9.27;;;;;;;2.54;90.24;96659.56;5016668;28;20469;-63
2021/12/09 07:46:37;;;;;;;20.35;7.53;;;;;;;3.28;88.74;96739.94;5021387;28;20492;-64
2021/12/09 07:49:06;;;;;;;18.85;8.52;;;;;;;3.50;87.87;96736.09;5010071;28;20057;-63
2021/12/09 07:51:33;;;;;;;18.60;9.02;;;;;;;3.16;87.76;96655.06;5032581;28;20122;-69
2021/12/09 07:54:01;;;;;;;17.67;8.52;;;;;;;3.99;87.28;96738.78;5018580;28;20050;-64
2021/12/09 07:56:28;;;;;;;19.38;9.27;;;;;;;4.23;85.19;96769.06;5012381;28;20081;-59
2021/12/09 07:58:55;;;;;;;16.75;8.48;;;;;;;3.47;84.99;96644.50;5015679;28;20056;-67
2021/12/09 08:01:21;;;;;;;18.52;9.20;;;;;;;4.37;85.01;96750.38;5012715;28;20057;-59
2021/12/09 08:03:48;;;;;;;16.45;8.10;;;;;;;2.17;83.10;96373.50;5013576;28;20244;-64
2021/12/09 08:06:16;;;;;;;22.52;10.13;;;;;;;4.77;83.69;96749.78;5007599;28;20524;-66
2021/12/09 08:08:43;;;;;;;23.20;11.70;;;;;;;5.09;83.42;96754.41;5012200;28;20053;-62
2021/12/09 08:11:10;;;;;;;28.00;12.73;;;;;;;5.14;81.58;96746.72;5015179;28;20542;-63
2021/12/09 08:13:37;;;;;;;34.50;15.80;;;;;;;4.71;80.81;96666.13;5010087;28;20168;-66
2021/12/09 08:16:04;;;;;;;57.28;21.38;;;;;;;5.46;80.67;96742.28;5020423;28;20596;-65
2021/12/09 08:18:43;;;;;;;56.15;21.42;;;;;;;5.40;82.27;96751.88;5014554;28;20133;-69
2021/12/09 08:21:10;;;;;;;45.40;20.00;;;;;;;5.01;83.09;96708.66;5015415;28;20057;-68
2021/12/09 08:23:36;;;;;;;26.70;11.48;;;;;;;5.47;82.55;96755.66;5012480;28;20048;-66
2021/12/09 08:26:03;;;;;;;17.10;9.38;;;;;;;4.98;82.72;96676.41;5019219;28;20053;-63
2021/12/09 08:28:30;;;;;;;19.48;9.45;;;;;;;5.41;81.77;96718.59;5011510;28;20050;-67
2021/12/09 08:30:57;;;;;;;22.65;9.45;;;;;;;5.78;82.41;96772.34;5017742;28;20124;-66
2021/12/09 08:33:24;;;;;;;14.63;7.57;;;;;;;5.88;79.85;96689.44;5007290;28;20068;-66
2021/12/09 08:35:52;;;;;;;17.27;7.45;;;;;;;6.14;79.76;96727.50;5024587;28;20089;-68
2021/12/09 08:38:19;;;;;;;17.92;8.90;;;;;;;6.27;79.64;96734.56;5009771;28;20572;-72
2021/12/09 08:40:47;;;;;;;22.60;8.88;;;;;;;6.37;78.79;96734.03;5016948;28;20045;-65
2021/12/09 08:43:14;;;;;;;15.63;8.38;;;;;;;6.26;79.70;96726.66;5009519;28;20046;-68
2021/12/09 08:45:41;;;;;;;17.73;8.35;;;;;;;5.97;81.24;96719.53;5015986;28;20055;-61
2021/12/09 08:48:08;;;;;;;16.75;7.57;;;;;;;4.34;82.29;96542.69;5017620;28;20047;-65
2021/12/09 08:50:36;;;;;;;18.77;9.30;;;;;;;5.00;84.78;96687.81;5016536;28;20141;-63
2021/12/09 08:53:09;;;;;;;17.35;8.73;;;;;;;4.86;83.72;96613.28;5004416;28;20052;-63
2021/12/09 08:55:36;;;;;;;20.75;9.60;;;;;;;5.18;83.62;96637.06;5004219;28;20045;-62
2021/12/09 08:58:04;;;;;;;19.35;9.35;;;;;;;5.78;84.08;96698.16;5018742;28;20136;-64
2021/12/09 09:00:32;;;;;;;17.77;9.35;;;;;;;5.89;82.30;96701.25;5021249;28;20041;-63
2021/12/09 09:03:00;;;;;;;18.73;9.30;;;;;;;6.10;83.06;96699.09;5014694;28;20103;-64
2021/12/09 09:05:28;;;;;;;18.40;8.63;;;;;;;4.95;81.70;96457.56;5015772;28;20166;-61
2021/12/09 09:07:56;;;;;;;18.30;8.88;;;;;;;5.35;81.70;96515.97;5044295;28;20053;-66
2021/12/09 09:10:26;;;;;;;15.50;8.25;;;;;;;5.52;83.91;96652.97;5023892;28;20049;-66
2021/12/09 09:12:54;;;;;;;20.83;10.18;;;;;;;5.93;85.27;96691.94;5040322;28;20048;-64
2021/12/09 09:15:25;;;;;;;20.15;9.95;;;;;;;5.80;82.48;96626.34;5042976;28;20065;-69
2021/12/09 09:17:52;;;;;;;18.67;9.10;;;;;;;6.52;80.94;96686.50;5043240;28;20087;-67
2021/12/09 09:20:23;;;;;;;21.60;10.35;;;;;;;6.64;80.61;96683.69;5039347;28;20075;-67
2021/12/09 09:22:50;;;;;;;21.33;10.52;;;;;;;4.39;80.82;96342.31;5019744;28;20544;-66
2021/12/09 09:25:22;;;;;;;23.42;10.85;;;;;;;6.67;82.02;96666.47;5014379;28;20519;-63
2021/12/09 09:27:49;;;;;;;27.60;11.02;;;;;;;7.02;82.21;96656.34;5014938;28;20057;-66
2021/12/09 09:30:19;;;;;;;27.90;11.50;;;;;;;6.86;82.18;96657.50;5011428;28;20513;-63
2021/12/09 09:32:48;;;;;;;23.20;10.88;;;;;;;6.38;83.15;96658.63;5009021;28;20053;-68
2021/12/09 09:35:15;;;;;;;26.88;10.63;;;;;;;6.67;81.71;96630.69;5010476;28;20912;-67
2021/12/09 09:37:43;;;;;;;20.35;10.23;;;;;;;6.74;82.09;96644.63;5008730;28;20050;-62
2021/12/09 09:40:14;;;;;;;20.60;10.48;;;;;;;6.96;83.75;96646.75;5005742;28;20049;-67
2021/12/09 09:45:12;;;;;;;23.67;10.60;;;;;;;7.55;82.69;96641.84;5007802;28;20075;-68
2021/12/09 09:47:40;;;;;;;24.85;10.93;;;;;;;6.78;84.09;96647.47;5010160;28;20132;-70
2021/12/09 09:50:09;;;;;;;19.55;9.93;;;;;;;6.48;85.24;96605.81;5011467;28;20081;-62
2021/12/09 09:52:36;;;;;;;43.65;22.02;;;;;;;7.08;82.91;96632.88;5009511;28;20056;-62
2021/12/09 09:55:08;;;;;;;31.63;12.18;;;;;;;7.62;81.47;96635.66;5017870;28;20056;-61
2021/12/09 09:57:35;;;;;;;25.23;11.30;;;;;;;7.72;80.21;96638.66;5014986;28;20056;-60
2021/12/09 10:00:06;;;;;;;25.80;11.20;;;;;;;7.32;82.25;96621.63;5022917;28;20041;-65
2021/12/09 10:02:33;;;;;;;21.60;10.75;;;;;;;7.60;81.28;96638.00;5028106;28;20069;-66
2021/12/09 10:05:02;;;;;;;17.95;9.43;;;;;;;7.27;80.09;96586.09;5017348;28;20049;-63
2021/12/09 10:07:32;;;;;;;18.42;9.13;;;;;;;7.39;79.69;96572.22;5021270;28;20053;-64
2021/12/09 10:09:58;;;;;;;20.02;9.50;;;;;;;7.53;78.80;96589.03;5019436;28;20536;-63
2021/12/09 10:12:25;;;;;;;20.42;9.20;;;;;;;7.73;76.33;96576.84;5011411;28;20062;-63
2021/12/09 10:14:54;;;;;;;19.92;9.77;;;;;;;5.52;77.22;96258.28;5014024;28;20060;-61
2021/12/09 10:17:24;;;;;;;21.02;9.07;;;;;;;7.22;77.38;96588.34;5003906;28;20054;-62
2021/12/09 10:20:10;;;;;;;22.13;9.30;;;;;;;5.84;78.97;96364.28;5009495;28;20453;-61
2021/12/09 10:22:37;;;;;;;24.38;9.85;;;;;;;7.07;78.70;96554.19;5011221;28;20132;-64
2021/12/09 10:25:23;;;;;;;20.70;10.30;;;;;;;7.90;77.69;96624.44;5007345;28;20612;-66
2021/12/09 10:28:00;;;;;;;21.85;8.70;;;;;;;6.93;76.87;96460.25;5008383;28;20072;-63
2021/12/09 10:30:29;;;;;;;19.42;9.05;;;;;;;7.37;78.62;96629.63;5007258;28;20058;-62
2021/12/09 10:33:03;;;;;;;20.25;8.48;;;;;;;7.22;79.15;96616.66;5022328;28;20167;-63
2021/12/09 10:35:30;;;;;;;19.48;8.88;;;;;;;7.49;79.32;96621.22;5021460;28;20148;-63
2021/12/09 10:38:01;;;;;;;19.50;8.98;;;;;;;6.83;79.44;96570.91;5020322;28;20051;-65
2021/12/09 10:40:30;;;;;;;18.02;8.23;;;;;;;7.02;79.87;96604.03;5008417;28;20050;-62
2021/12/09 10:43:03;;;;;;;18.42;8.63;;;;;;;6.96;80.29;96586.19;5005648;28;20049;-62
2021/12/09 10:45:37;;;;;;;18.83;8.38;;;;;;;7.44;79.37;96618.78;5006541;28;20523;-62
2021/12/09 10:48:31;;;;;;;20.45;9.52;;;;;;;6.68;81.76;96560.75;5042526;28;20055;-64
2021/12/09 10:53:46;;;;;;;24.55;10.32;;;;;;;7.28;80.79;96538.13;5030270;28;19947;-62
2021/12/09 10:56:29;;;;;;;18.05;8.90;;;;;;;8.07;77.86;96599.16;5011622;28;20141;-61
2021/12/09 10:58:57;;;;;;;21.15;10.57;;;;;;;7.61;78.10;96538.44;5024197;28;20536;-62
2021/12/09 11:01:25;;;;;;;22.70;11.43;;;;;;;7.86;77.93;96587.72;5026336;28;20068;-62
2021/12/09 11:03:58;;;;;;;21.50;10.07;;;;;;;7.94;77.92;96592.22;5026704;28;20061;-62
2021/12/09 11:06:28;;;;;;;13.85;6.15;;;;;;;7.73;78.70;96576.03;5024553;28;20179;-62
2021/12/09 11:08:57;;;;;;;34.13;14.75;;;;;;;8.12;79.65;96571.28;5023983;28;20053;-62
2021/12/09 11:11:34;;;;;;;18.08;10.15;;;;;;;7.91;76.28;96433.03;5009901;28;20136;-63
2021/12/09 11:14:03;;;;;;;17.92;8.52;;;;;;;8.87;72.58;96580.50;5015695;28;20113;-63
2021/12/09 11:16:39;;;;;;;19.90;8.30;;;;;;;9.20;72.77;96575.09;5014050;28;20062;-63
2021/12/09 11:19:14;;;;;;;17.48;7.55;;;;;;;8.60;71.26;96554.84;5011392;28;20106;-63
2021/12/09 11:21:58;;;;;;;17.90;7.70;;;;;;;8.62;73.49;96579.31;5005392;28;20045;-63
2021/12/09 11:24:30;;;;;;;17.15;7.20;;;;;;;7.99;75.29;96572.63;5013751;28;20496;-64
2021/12/09 11:27:03;;;;;;;18.13;7.45;;;;;;;7.90;76.01;96569.28;5018955;28;20583;-66
2021/12/09 11:29:38;;;;;;;14.70;7.53;;;;;;;7.81;77.08;96571.50;5017893;28;20062;-65
2021/12/09 11:35:05;;;;;;;14.93;7.25;;;;;;;7.36;76.70;96525.28;5008337;28;20054;-66
2021/12/09 11:40:07;;;;;;;14.23;6.57;;;;;;;7.52;76.23;96550.81;5014607;28;20054;-67
2021/12/09 11:42:44;;;;;;;18.73;8.20;;;;;;;7.60;75.34;96500.97;5009008;28;20064;-68
2021/12/09 11:45:13;;;;;;;25.40;10.27;;;;;;;7.51;75.86;96483.88;5020554;28;20675;-67
2021/12/09 11:47:42;;;;;;;14.90;7.20;;;;;;;7.00;75.88;96451.38;5017323;28;20047;-65